Terminal Aerodrome Forecast
Issued by NWS Cleveland, OH

Home | Current Version | Previous Version | Text Only | Print | Product List | Glossary On
Versions: 1 2 3 4 5 6 7 8 9 10 11 12 13 14 15 16 17
055
FTUS41 KCLE 181133
TAFCAK
TAF
KCAK 181133Z 1812/1912 21007KT P6SM SCT008
      TEMPO 1812/1813 BKN008
     FM181300 21010KT P6SM BKN012
     FM181500 24010KT P6SM BKN025
     FM181730 26012G20KT P6SM BKN040
     FM181900 26012G22KT P6SM BKN050
     FM182300 24006KT P6SM SCT200
     FM191100 24006KT P6SM SCT100 OVC200=

USA.gov is the U.S. government's official web portal to all federal, state and local government web resources and services.